Time;durP1;ratioP1;P1;durP2;ratioP2;P2;SDS_P1;SDS_P2;PMS_P1;PMS_P2;Temp;Humidity;BMP_temperature;BMP_pressure;BME280_temperature;BME280_humidity;BME280_pressure;Samples;Min_cycle;Max_cycle;Signal;HPM_P1;HPM_P2
2023/01/16 00:00:56;;;;;;;42.38;22.98;;;2.10;99.90;;;;;;5010063;28;20048;-71
2023/01/16 00:03:22;;;;;;;88.72;41.22;;;2.20;99.90;;;;;;5015774;28;20061;-71
2023/01/16 00:05:48;;;;;;;108.38;51.47;;;2.20;99.90;;;;;;5010251;28;20030;-72
2023/01/16 00:08:14;;;;;;;23.35;13.10;;;2.20;99.90;;;;;;5017011;28;20375;-71
2023/01/16 00:10:39;;;;;;;510.88;283.33;;;2.20;99.90;;;;;;5010426;28;20077;-71
2023/01/16 00:13:06;;;;;;;246.45;120.53;;;2.20;99.90;;;;;;5014089;28;20018;-71
2023/01/16 00:15:32;;;;;;;136.60;65.88;;;2.10;99.90;;;;;;5012145;28;20169;-71
2023/01/16 00:17:58;;;;;;;55.67;28.15;;;2.20;99.90;;;;;;5015096;28;20026;-71
2023/01/16 00:20:24;;;;;;;78.25;41.75;;;2.20;99.90;;;;;;5012574;28;20041;-71
2023/01/16 00:22:49;;;;;;;72.68;37.65;;;2.20;99.90;;;;;;5015769;28;20026;-72
2023/01/16 00:25:15;;;;;;;31.23;15.70;;;2.20;99.90;;;;;;5013706;28;20018;-71
2023/01/16 00:27:41;;;;;;;25.92;11.32;;;2.20;99.90;;;;;;5017683;28;20529;-71
2023/01/16 00:30:07;;;;;;;68.63;33.60;;;2.20;99.90;;;;;;5017166;28;20033;-71
2023/01/16 00:32:33;;;;;;;53.88;28.40;;;2.30;99.90;;;;;;5014479;28;20054;-71
2023/01/16 00:34:59;;;;;;;131.82;66.72;;;2.40;99.90;;;;;;5018279;28;20033;-72
2023/01/16 00:37:24;;;;;;;31.50;16.13;;;2.40;99.90;;;;;;5015701;28;20101;-71
2023/01/16 00:39:53;;;;;;;77.05;31.10;;;2.40;99.90;;;;;;5018832;28;20018;-71
2023/01/16 00:42:18;;;;;;;489.13;208.35;;;2.40;99.90;;;;;;5016739;28;20504;-71
2023/01/16 00:44:44;;;;;;;617.60;319.02;;;2.40;99.90;;;;;;5018817;28;20097;-71
2023/01/16 00:47:10;;;;;;;118.43;48.25;;;2.50;99.90;;;;;;5019233;28;20036;-71
2023/01/16 00:49:36;;;;;;;34.22;13.93;;;2.60;99.90;;;;;;5018035;28;20504;-72
2023/01/16 00:52:02;;;;;;;77.78;36.35;;;2.60;99.90;;;;;;5013091;28;20038;-71
2023/01/16 00:54:27;;;;;;;192.00;93.03;;;2.70;99.90;;;;;;5019104;28;20567;-71
2023/01/16 00:56:53;;;;;;;182.07;90.55;;;2.70;99.90;;;;;;5013613;28;20393;-72
2023/01/16 00:59:19;;;;;;;45.53;24.50;;;2.70;99.90;;;;;;5020317;28;20030;-71
2023/01/16 01:01:44;;;;;;;65.10;32.90;;;2.70;99.90;;;;;;5014833;28;20022;-71
2023/01/16 01:04:12;;;;;;;113.55;55.15;;;2.80;99.90;;;;;;5020130;28;20022;-71
2023/01/16 01:06:38;;;;;;;35.25;20.88;;;2.80;99.90;;;;;;5013601;28;20133;-71
2023/01/16 01:09:04;;;;;;;34.75;18.48;;;2.90;99.90;;;;;;5020061;28;20525;-71
2023/01/16 01:11:30;;;;;;;40.55;23.20;;;2.80;99.90;;;;;;5010551;28;20025;-71
2023/01/16 01:13:56;;;;;;;60.15;31.13;;;2.80;99.90;;;;;;5019897;28;20026;-71
2023/01/16 01:16:22;;;;;;;45.05;21.17;;;2.90;99.90;;;;;;5013221;28;20072;-71
2023/01/16 01:18:48;;;;;;;145.68;66.63;;;2.90;99.90;;;;;;5019730;28;20370;-72
2023/01/16 01:21:13;;;;;;;316.00;135.15;;;2.90;99.90;;;;;;5014927;28;20021;-71
2023/01/16 01:23:39;;;;;;;78.90;35.30;;;2.90;99.90;;;;;;5018494;28;20037;-71
2023/01/16 01:26:11;;;;;;;102.25;48.72;;;2.80;99.90;;;;;;5017352;28;20044;-71
2023/01/16 01:28:36;;;;;;;234.43;113.60;;;2.70;99.90;;;;;;5019438;28;20425;-71
2023/01/16 01:31:05;;;;;;;21.20;12.30;;;2.60;99.90;;;;;;5009362;28;20030;-71
2023/01/16 01:33:30;;;;;;;8.95;6.60;;;2.50;99.90;;;;;;5011775;28;20029;-72
2023/01/16 01:35:56;;;;;;;6.38;5.50;;;2.40;99.90;;;;;;5014948;28;20022;-71
2023/01/16 01:38:22;;;;;;;7.38;5.43;;;2.30;99.90;;;;;;5017251;28;20029;-71
2023/01/16 01:40:47;;;;;;;7.30;6.10;;;2.20;99.90;;;;;;5016831;28;20026;-71
2023/01/16 01:43:15;;;;;;;11.60;6.20;;;2.10;99.90;;;;;;5018075;28;20041;-71
2023/01/16 01:45:44;;;;;;;10.35;6.13;;;2.00;99.90;;;;;;5017050;28;20026;-71
2023/01/16 01:48:18;;;;;;;17.10;6.37;;;1.90;99.90;;;;;;5017847;28;20033;-71
2023/01/16 01:51:05;;;;;;;6.80;5.15;;;1.90;99.90;;;;;;5015651;28;20084;-71
2023/01/16 01:53:48;;;;;;;8.68;6.25;;;1.80;99.90;;;;;;5017952;28;20508;-72
2023/01/16 01:56:35;;;;;;;6.10;5.45;;;1.70;99.90;;;;;;5014474;28;20030;-72
2023/01/16 01:59:10;;;;;;;5.97;5.10;;;1.70;99.90;;;;;;5017786;28;20378;-72
2023/01/16 02:01:37;;;;;;;6.38;5.53;;;1.60;99.90;;;;;;5012360;28;20121;-72
2023/01/16 02:04:09;;;;;;;7.32;6.20;;;1.60;99.90;;;;;;5018808;28;20026;-71
2023/01/16 02:06:47;;;;;;;15.15;7.30;;;1.50;99.90;;;;;;5009191;28;20112;-71
2023/01/16 02:09:14;;;;;;;7.55;6.47;;;1.50;99.90;;;;;;5014638;28;20030;-71
2023/01/16 02:12:00;;;;;;;14.35;6.03;;;1.50;99.90;;;;;;5009415;28;20494;-71
2023/01/16 02:14:28;;;;;;;9.38;5.93;;;1.50;99.90;;;;;;5017453;28;20029;-71
2023/01/16 02:20:13;;;;;;;11.25;6.28;;;1.70;99.90;;;;;;5016544;28;20060;-73
2023/01/16 02:22:57;;;;;;;7.03;6.32;;;1.80;99.90;;;;;;5013682;28;20144;-71
2023/01/16 02:25:54;;;;;;;10.32;6.00;;;1.90;99.90;;;;;;5012284;28;20027;-72
2023/01/16 02:28:52;;;;;;;14.05;6.32;;;2.00;99.90;;;;;;5007324;28;20022;-71
2023/01/16 02:32:14;;;;;;;9.50;6.10;;;2.10;99.90;;;;;;5014222;28;20040;-71
2023/01/16 02:34:56;;;;;;;11.38;6.25;;;2.20;99.90;;;;;;4965879;28;20049;-71
2023/01/16 02:37:47;;;;;;;8.48;6.38;;;2.30;99.90;;;;;;5015635;28;20037;-71
2023/01/16 02:40:31;;;;;;;11.93;6.20;;;2.30;99.90;;;;;;5013382;28;20073;-71
2023/01/16 02:43:10;;;;;;;8.35;5.93;;;2.40;99.90;;;;;;5016905;28;20033;-71
2023/01/16 02:46:01;;;;;;;6.65;5.70;;;2.40;99.90;;;;;;5016289;28;20489;-71
2023/01/16 02:48:47;;;;;;;8.32;5.97;;;2.40;99.90;;;;;;5017068;28;20061;-71
2023/01/16 02:51:27;;;;;;;8.52;6.15;;;2.50;99.90;;;;;;5010165;28;20038;-72
2023/01/16 02:54:10;;;;;;;8.05;5.85;;;2.60;99.90;;;;;;5016820;28;20032;-71
2023/01/16 02:56:59;;;;;;;7.95;6.50;;;2.60;99.90;;;;;;5011570;28;20069;-72
2023/01/16 02:59:25;;;;;;;7.25;5.88;;;2.70;99.90;;;;;;5012638;28;20034;-71
2023/01/16 03:01:50;;;;;;;7.15;5.75;;;2.70;99.90;;;;;;5011449;28;20133;-72
2023/01/16 03:04:51;;;;;;;7.10;5.13;;;2.80;99.90;;;;;;5016497;28;20022;-72
2023/01/16 03:07:20;;;;;;;;;;;2.80;99.90;;;;;;5015949;28;20517;-71
2023/01/16 03:09:48;;;;;;;12.30;6.53;;;2.80;99.90;;;;;;5013773;28;19956;-71
2023/01/16 03:12:26;;;;;;;5.82;5.10;;;2.90;99.90;;;;;;5011055;28;20109;-71
2023/01/16 03:15:10;;;;;;;6.65;4.25;;;3.00;99.90;;;;;;5015516;28;20025;-71
2023/01/16 03:17:58;;;;;;;6.05;4.78;;;3.10;99.90;;;;;;5014488;28;20478;-71
2023/01/16 03:20:45;;;;;;;9.38;6.03;;;3.30;99.90;;;;;;5014321;28;20490;-71
2023/01/16 03:23:50;;;;;;;4.55;4.10;;;3.50;99.90;;;;;;5024157;28;20026;-71
2023/01/16 03:26:45;;;;;;;4.60;4.20;;;3.90;99.90;;;;;;5011084;28;20036;-72
2023/01/16 03:29:27;;;;;;;4.03;3.72;;;4.10;99.90;;;;;;5012598;28;20478;-72
2023/01/16 03:32:04;;;;;;;6.30;5.07;;;4.20;99.90;;;;;;5011621;28;20057;-71
2023/01/16 03:34:33;;;;;;;4.25;3.90;;;4.20;99.90;;;;;;5008691;28;20021;-71
2023/01/16 03:37:16;;;;;;;4.85;4.10;;;4.20;99.90;;;;;;5011101;28;20021;-71
2023/01/16 03:39:46;;;;;;;4.22;3.92;;;4.20;99.90;;;;;;5015019;28;20064;-71
2023/01/16 03:42:24;;;;;;;5.30;3.88;;;4.10;99.90;;;;;;5014554;28;20022;-71
2023/01/16 03:44:59;;;;;;;6.57;4.38;;;4.10;99.90;;;;;;5015572;28;20037;-71
2023/01/16 03:47:38;;;;;;;6.15;4.55;;;4.00;99.90;;;;;;5008763;28;20503;-71
2023/01/16 03:50:08;;;;;;;6.38;4.47;;;4.00;99.90;;;;;;5013657;28;20045;-71
2023/01/16 03:52:40;;;;;;;5.38;4.35;;;4.00;99.90;;;;;;5011564;28;20109;-72
2023/01/16 03:55:12;;;;;;;4.70;4.20;;;4.00;99.90;;;;;;5011039;28;20061;-72
2023/01/16 03:57:44;;;;;;;6.65;3.80;;;4.00;99.90;;;;;;5013178;28;20053;-72
2023/01/16 04:00:11;;;;;;;6.85;4.97;;;4.10;99.90;;;;;;5012894;28;20057;-72
2023/01/16 04:02:46;;;;;;;4.85;4.43;;;4.10;99.90;;;;;;5015200;28;20463;-72
2023/01/16 04:05:12;;;;;;;4.50;4.10;;;4.10;99.90;;;;;;5013621;28;20022;-72
2023/01/16 04:08:19;;;;;;;5.88;4.50;;;4.10;99.90;;;;;;5010055;28;20029;-72
2023/01/16 04:10:47;;;;;;;7.18;4.38;;;4.10;99.90;;;;;;5013799;28;20034;-72
2023/01/16 04:13:21;;;;;;;6.20;4.55;;;4.00;99.90;;;;;;5011531;28;20033;-72
2023/01/16 04:15:51;;;;;;;7.35;4.28;;;4.00;99.90;;;;;;5010343;28;20057;-72
2023/01/16 04:18:20;;;;;;;7.15;4.60;;;4.00;99.90;;;;;;5008681;28;20045;-72
2023/01/16 04:20:49;;;;;;;8.95;4.30;;;4.10;99.90;;;;;;5012296;28;20034;-72
2023/01/16 04:23:16;;;;;;;6.78;4.22;;;4.00;99.90;;;;;;5015726;28;20026;-72
2023/01/16 04:25:42;;;;;;;5.68;4.20;;;4.10;99.90;;;;;;5011491;28;20038;-72
2023/01/16 04:28:08;;;;;;;6.80;4.80;;;4.10;99.90;;;;;;5013492;28;20033;-72
2023/01/16 04:30:33;;;;;;;5.10;4.60;;;4.10;99.90;;;;;;5012340;28;20038;-72
2023/01/16 04:33:06;;;;;;;5.13;4.63;;;4.10;99.90;;;;;;5015455;28;20034;-72
2023/01/16 04:35:32;;;;;;;7.20;4.38;;;4.10;99.90;;;;;;5011735;28;20037;-72
2023/01/16 04:37:58;;;;;;;7.18;4.88;;;4.10;99.90;;;;;;5015197;28;20101;-72
2023/01/16 04:40:24;;;;;;;8.10;4.25;;;4.10;99.90;;;;;;5013830;28;20022;-72
2023/01/16 04:42:50;;;;;;;5.25;3.95;;;4.10;99.90;;;;;;5016294;28;20026;-72
2023/01/16 04:45:16;;;;;;;5.22;4.25;;;4.10;99.90;;;;;;5014365;28;20022;-72
2023/01/16 04:47:46;;;;;;;5.53;4.38;;;4.10;99.90;;;;;;5013318;28;20030;-73
2023/01/16 04:50:12;;;;;;;4.70;4.30;;;4.10;99.90;;;;;;5008775;28;20069;-72
2023/01/16 04:52:39;;;;;;;12.80;5.80;;;4.20;99.90;;;;;;5014277;28;20120;-72
2023/01/16 04:55:05;;;;;;;5.75;4.22;;;4.20;99.90;;;;;;5015142;28;20101;-73
2023/01/16 04:57:31;;;;;;;5.07;4.10;;;4.20;99.90;;;;;;5011979;28;20022;-72
2023/01/16 04:59:57;;;;;;;5.13;4.63;;;4.20;99.90;;;;;;5014332;28;20097;-72
2023/01/16 05:02:22;;;;;;;4.13;3.83;;;4.10;99.90;;;;;;5012043;28;20045;-73
2023/01/16 05:04:48;;;;;;;4.88;4.10;;;4.20;99.90;;;;;;5014941;28;20023;-73
2023/01/16 05:07:14;;;;;;;5.95;4.63;;;4.20;99.90;;;;;;5022733;28;20041;-73
2023/01/16 05:09:39;;;;;;;4.25;3.85;;;4.20;99.90;;;;;;5015128;28;20505;-72
2023/01/16 05:12:05;;;;;;;5.63;4.70;;;4.20;99.90;;;;;;5008960;28;20030;-73
2023/01/16 05:14:31;;;;;;;4.88;4.40;;;4.20;99.90;;;;;;5016884;28;20030;-73
2023/01/16 05:16:56;;;;;;;4.97;4.57;;;4.20;99.90;;;;;;5013988;28;20185;-72
2023/01/16 05:19:22;;;;;;;4.80;4.28;;;4.20;99.90;;;;;;5019625;28;20044;-72
2023/01/16 05:21:48;;;;;;;6.45;5.00;;;4.10;99.90;;;;;;5016053;28;20668;-73
2023/01/16 05:24:13;;;;;;;810.63;424.95;;;4.10;99.90;;;;;;5017412;28;20109;-73
2023/01/16 05:26:39;;;;;;;135.38;58.85;;;4.10;99.90;;;;;;5012295;28;20034;-73
2023/01/16 05:29:05;;;;;;;417.67;208.10;;;4.10;99.90;;;;;;5018269;28;20119;-73
2023/01/16 05:31:31;;;;;;;277.60;144.55;;;4.20;99.90;;;;;;5012730;28;20079;-73
2023/01/16 05:33:56;;;;;;;176.68;98.05;;;4.20;99.90;;;;;;5001836;28;20022;-73
2023/01/16 05:36:22;;;;;;;164.88;92.60;;;4.20;99.90;;;;;;5001390;28;20037;-73
2023/01/16 05:38:48;;;;;;;246.20;169.30;;;4.30;99.90;;;;;;5017799;28;20105;-73
2023/01/16 05:41:13;;;;;;;190.20;135.43;;;4.30;99.90;;;;;;5015825;28;20068;-73
2023/01/16 05:43:39;;;;;;;31.85;25.83;;;4.40;99.90;;;;;;5018312;28;20025;-73
2023/01/16 05:46:05;;;;;;;12.57;10.50;;;4.40;99.90;;;;;;5013836;28;20041;-72
2023/01/16 05:48:32;;;;;;;12.35;11.05;;;4.50;99.90;;;;;;5018379;28;20030;-73
2023/01/16 05:50:59;;;;;;;14.10;12.18;;;4.50;99.90;;;;;;5012800;28;20049;-72
2023/01/16 05:53:27;;;;;;;9.98;8.13;;;4.60;99.90;;;;;;5016883;28;20547;-72
2023/01/16 05:55:53;;;;;;;8.65;6.22;;;4.70;99.90;;;;;;5014968;28;20109;-72
2023/01/16 05:58:19;;;;;;;6.18;5.63;;;4.70;99.90;;;;;;5015268;28;20071;-72
2023/01/16 06:00:45;;;;;;;4.38;4.03;;;4.80;99.90;;;;;;5014060;28;20113;-73
2023/01/16 06:03:11;;;;;;;5.10;4.25;;;5.00;99.90;;;;;;5029977;28;20440;-73
2023/01/16 06:05:36;;;;;;;3.97;3.40;;;5.10;99.90;;;;;;5014716;28;20044;-72
2023/01/16 06:08:03;;;;;;;3.70;3.35;;;5.30;99.90;;;;;;5014074;28;20072;-73
2023/01/16 06:10:29;;;;;;;3.75;3.45;;;5.50;99.90;;;;;;5014648;28;20033;-74
2023/01/16 06:12:54;;;;;;;5.82;3.50;;;5.70;99.90;;;;;;5010122;28;20030;-73
2023/01/16 06:15:20;;;;;;;3.75;3.45;;;5.90;99.90;;;;;;5013157;28;20034;-73
2023/01/16 06:17:46;;;;;;;5.30;3.83;;;6.00;99.90;;;;;;5013866;28;20494;-73
2023/01/16 06:20:12;;;;;;;5.13;3.45;;;6.10;99.90;;;;;;5015120;28;20375;-73
2023/01/16 06:22:38;;;;;;;3.83;3.53;;;6.10;99.90;;;;;;5015691;28;20018;-74
2023/01/16 06:25:04;;;;;;;3.97;3.67;;;6.20;99.90;;;;;;5015437;28;20410;-73
2023/01/16 06:27:32;;;;;;;3.80;3.50;;;6.20;99.90;;;;;;5015864;28;20026;-73
2023/01/16 06:29:58;;;;;;;5.88;3.78;;;6.20;99.90;;;;;;5015254;28;20029;-73
2023/01/16 06:32:23;;;;;;;4.15;3.80;;;6.20;99.90;;;;;;5016637;28;20022;-73
2023/01/16 06:34:49;;;;;;;3.90;3.60;;;6.10;99.90;;;;;;5013498;28;20030;-74
2023/01/16 06:37:15;;;;;;;4.40;3.97;;;6.00;99.90;;;;;;5015074;28;20038;-74
2023/01/16 06:39:40;;;;;;;4.00;3.47;;;5.90;99.90;;;;;;5016800;28;20030;-74
2023/01/16 06:42:06;;;;;;;4.32;3.92;;;5.90;99.90;;;;;;5012204;28;20667;-74
2023/01/16 06:44:33;;;;;;;4.38;3.22;;;5.80;99.90;;;;;;5017406;28;20065;-74
2023/01/16 06:47:00;;;;;;;4.60;3.38;;;5.90;99.90;;;;;;5014964;28;20036;-73
2023/01/16 06:49:26;;;;;;;6.07;3.40;;;6.00;99.90;;;;;;5017742;28;20061;-74
2023/01/16 06:51:51;;;;;;;5.45;3.30;;;6.20;99.90;;;;;;5015751;28;20053;-74
2023/01/16 06:54:17;;;;;;;3.50;3.17;;;6.30;99.90;;;;;;5016815;28;20026;-73
2023/01/16 06:56:43;;;;;;;3.58;3.28;;;6.30;99.90;;;;;;5015769;28;20029;-73
2023/01/16 06:59:09;;;;;;;4.55;3.22;;;6.30;99.90;;;;;;5049924;28;20109;-73
2023/01/16 07:01:35;;;;;;;3.65;3.35;;;6.30;99.90;;;;;;5011361;28;20104;-74
2023/01/16 07:04:01;;;;;;;3.67;3.33;;;6.30;99.90;;;;;;5015363;28;20026;-78
2023/01/16 07:06:27;;;;;;;3.33;3.13;;;6.30;99.90;;;;;;5008942;28;20486;-79
2023/01/16 07:08:53;;;;;;;3.40;3.10;;;6.40;99.90;;;;;;5017160;28;20034;-78
2023/01/16 07:11:19;;;;;;;3.30;3.10;;;6.40;99.90;;;;;;5012564;28;20030;-78
2023/01/16 07:13:45;;;;;;;3.53;3.28;;;6.40;99.90;;;;;;5011358;28;20033;-76
2023/01/16 07:24:32;;;;;;;3.33;3.10;;;6.50;99.90;;;;;;5015366;28;20044;-74
2023/01/16 07:27:02;;;;;;;3.42;3.22;;;6.60;99.90;;;;;;5011331;28;20034;-74
2023/01/16 07:29:30;;;;;;;3.20;3.00;;;6.60;99.90;;;;;;5016398;28;20417;-73
2023/01/16 07:31:57;;;;;;;5.05;4.65;;;6.50;99.90;;;;;;5014315;28;20450;-74
2023/01/16 07:34:22;;;;;;;3.17;2.90;;;6.60;99.90;;;;;;5016473;28;20066;-74
2023/01/16 07:36:48;;;;;;;6.68;2.80;;;6.50;99.90;;;;;;5014408;28;20022;-74
2023/01/16 07:39:14;;;;;;;4.97;3.50;;;6.60;99.90;;;;;;5015171;28;20026;-74
2023/01/16 07:41:39;;;;;;;3.83;3.50;;;6.60;99.90;;;;;;5014321;28;20036;-74
2023/01/16 07:44:06;;;;;;;4.10;3.70;;;6.60;99.90;;;;;;5015261;28;20089;-77
2023/01/16 07:46:32;;;;;;;4.43;3.50;;;6.60;99.90;;;;;;5014283;28;20061;-74
2023/01/16 07:48:58;;;;;;;6.30;5.32;;;6.60;99.90;;;;;;5016060;28;20080;-74
2023/01/16 07:51:24;;;;;;;3.85;3.55;;;6.60;99.90;;;;;;5010858;28;20088;-74
2023/01/16 07:53:49;;;;;;;3.58;3.28;;;6.50;99.90;;;;;;5015224;28;20030;-73
2023/01/16 07:56:15;;;;;;;4.85;3.15;;;6.60;99.90;;;;;;5010602;28;20014;-74
2023/01/16 07:58:42;;;;;;;3.53;3.25;;;6.60;99.90;;;;;;5012366;28;20037;-74
2023/01/16 08:01:10;;;;;;;4.78;4.38;;;6.60;99.90;;;;;;5007672;28;20053;-73
2023/01/16 08:03:36;;;;;;;8.40;7.53;;;6.70;99.90;;;;;;5012098;28;20041;-74
2023/01/16 08:06:02;;;;;;;3.95;2.95;;;6.60;99.90;;;;;;5006690;28;20030;-73
2023/01/16 08:08:28;;;;;;;3.10;2.90;;;6.60;99.90;;;;;;5009221;28;20031;-74
2023/01/16 08:10:59;;;;;;;3.47;3.13;;;6.60;99.90;;;;;;5013240;28;20030;-74
2023/01/16 08:13:26;;;;;;;3.00;2.80;;;6.60;99.90;;;;;;5011348;28;20056;-73
2023/01/16 08:15:52;;;;;;;3.35;2.90;;;6.60;99.90;;;;;;5008547;28;20036;-73
2023/01/16 08:18:19;;;;;;;3.35;3.13;;;6.60;99.90;;;;;;5004413;28;20030;-73
2023/01/16 08:20:45;;;;;;;3.20;3.00;;;6.70;99.90;;;;;;5005426;28;20482;-73
2023/01/16 08:23:12;;;;;;;4.13;3.33;;;6.80;99.90;;;;;;5012382;28;20025;-73
2023/01/16 08:25:37;;;;;;;3.67;3.30;;;6.90;99.90;;;;;;5009059;28;20033;-74
2023/01/16 08:28:04;;;;;;;2.92;2.70;;;6.90;99.90;;;;;;5013441;28;20022;-73
2023/01/16 08:30:30;;;;;;;3.30;3.00;;;6.90;99.90;;;;;;5012828;28;20022;-73
2023/01/16 08:33:01;;;;;;;3.03;2.80;;;6.90;99.90;;;;;;5003661;28;20030;-73
2023/01/16 08:35:27;;;;;;;3.03;2.80;;;6.90;99.90;;;;;;5011286;28;20053;-74
2023/01/16 08:37:53;;;;;;;3.00;2.80;;;6.90;99.90;;;;;;5004672;28;20477;-72
2023/01/16 08:40:19;;;;;;;3.20;2.90;;;7.00;99.90;;;;;;5012782;28;20045;-72
2023/01/16 08:51:24;;;;;;;3.40;3.10;;;7.00;99.90;;;;;;5013609;28;20072;-72
2023/01/16 08:53:55;;;;;;;3.10;2.90;;;7.00;99.90;;;;;;5019303;28;20458;-72
2023/01/16 08:56:22;;;;;;;4.00;2.70;;;7.00;99.90;;;;;;5016603;28;20037;-73
2023/01/16 08:58:48;;;;;;;3.00;2.80;;;6.90;99.90;;;;;;5018653;28;20026;-73
2023/01/16 09:01:15;;;;;;;3.60;3.30;;;6.90;99.90;;;;;;5016891;28;20080;-73
2023/01/16 09:03:41;;;;;;;3.75;3.10;;;7.00;99.90;;;;;;5019249;28;20040;-73
2023/01/16 09:06:07;;;;;;;3.13;2.92;;;7.00;99.90;;;;;;5015602;28;20030;-72
2023/01/16 09:08:32;;;;;;;3.47;3.17;;;7.00;99.90;;;;;;5018490;28;20030;-73
2023/01/16 09:13:48;;;;;;;5.32;3.70;;;7.00;99.90;;;;;;5016818;28;20402;-72
2023/01/16 09:16:19;;;;;;;5.35;3.40;;;7.10;99.90;;;;;;5016720;28;20129;-73
2023/01/16 09:18:45;;;;;;;5.82;4.57;;;7.10;99.90;;;;;;5018032;28;20033;-72
2023/01/16 09:21:10;;;;;;;4.05;3.65;;;7.00;99.90;;;;;;5015768;28;20038;-73
2023/01/16 09:23:36;;;;;;;8.65;4.22;;;7.00;99.90;;;;;;5018449;28;20056;-73
2023/01/16 09:26:02;;;;;;;4.32;3.92;;;7.00;99.90;;;;;;5016560;28;20108;-73
2023/01/16 09:28:27;;;;;;;4.28;3.35;;;7.00;99.90;;;;;;5016278;28;20117;-72
2023/01/16 09:30:53;;;;;;;3.92;3.58;;;7.10;99.90;;;;;;5014944;28;20022;-72
2023/01/16 09:33:19;;;;;;;3.50;3.20;;;7.10;99.90;;;;;;5017119;28;20375;-73
2023/01/16 09:35:44;;;;;;;3.50;3.20;;;7.20;99.90;;;;;;5015979;28;20088;-73
2023/01/16 09:38:10;;;;;;;3.30;3.00;;;7.20;99.90;;;;;;5016783;28;20022;-73
2023/01/16 09:40:37;;;;;;;3.10;2.88;;;7.10;99.90;;;;;;5016247;28;20441;-73
2023/01/16 09:43:35;;;;;;;3.38;3.08;;;7.20;99.90;;;;;;5020305;28;20034;-73
2023/01/16 09:46:13;;;;;;;3.50;3.20;;;7.20;99.90;;;;;;5013306;28;20110;-73
2023/01/16 09:48:55;;;;;;;5.32;2.88;;;7.10;99.90;;;;;;5016697;28;20025;-75
2023/01/16 09:51:35;;;;;;;3.03;2.83;;;7.10;99.90;;;;;;5013224;28;20035;-74
2023/01/16 10:00:05;;;;;;;3.45;3.15;;;6.90;99.90;;;;;;5038576;28;20221;-73
2023/01/16 10:02:33;;;;;;;3.60;3.30;;;6.90;99.90;;;;;;5039804;28;20440;-73
2023/01/16 10:05:02;;;;;;;4.75;3.10;;;6.80;99.90;;;;;;5028419;28;20048;-72
2023/01/16 10:07:46;;;;;;;7.45;3.72;;;6.90;99.90;;;;;;5011819;28;20038;-73
2023/01/16 10:10:27;;;;;;;4.63;3.38;;;6.90;99.90;;;;;;5011053;28;20057;-73
2023/01/16 10:13:30;;;;;;;4.25;3.33;;;7.00;99.90;;;;;;5010738;28;20030;-72
2023/01/16 10:16:15;;;;;;;3.85;3.45;;;7.10;99.90;;;;;;5010102;28;20022;-73
2023/01/16 10:19:15;;;;;;;4.25;3.50;;;7.20;99.90;;;;;;5013682;28;20053;-73
2023/01/16 10:21:51;;;;;;;5.00;3.22;;;7.30;99.90;;;;;;5012167;28;20029;-73
2023/01/16 10:24:34;;;;;;;4.35;3.30;;;7.40;99.90;;;;;;5029843;28;20048;-73
2023/01/16 10:27:21;;;;;;;3.90;3.22;;;7.50;99.90;;;;;;5011262;28;20033;-72
2023/01/16 10:30:00;;;;;;;6.50;4.00;;;7.60;99.90;;;;;;5013989;28;20022;-73
2023/01/16 10:32:32;;;;;;;4.50;3.42;;;7.60;99.90;;;;;;5014557;28;20088;-73
2023/01/16 10:35:08;;;;;;;5.68;3.55;;;7.60;99.90;;;;;;5005988;28;20095;-73
2023/01/16 10:37:35;;;;;;;10.57;3.40;;;7.60;99.90;;;;;;5015668;28;20021;-73
2023/01/16 10:40:16;;;;;;;12.73;3.40;;;7.60;99.90;;;;;;5016570;28;20018;-74
2023/01/16 10:51:04;;;;;;;8.38;3.38;;;7.70;99.90;;;;;;5011738;28;20415;-73
2023/01/16 10:53:31;;;;;;;6.07;3.45;;;7.80;99.90;;;;;;5018135;28;20482;-73
2023/01/16 10:55:58;;;;;;;6.45;3.47;;;7.80;99.90;;;;;;5010316;28;20041;-72
2023/01/16 10:58:29;;;;;;;4.47;3.40;;;7.70;99.90;;;;;;5016738;28;20028;-72
2023/01/16 11:01:02;;;;;;;4.38;2.97;;;7.70;99.90;;;;;;5009961;28;20026;-73
2023/01/16 11:03:39;;;;;;;4.63;3.90;;;7.80;99.90;;;;;;5014082;28;20026;-73
2023/01/16 11:06:19;;;;;;;6.65;3.45;;;7.80;99.90;;;;;;5013664;28;20022;-73
2023/01/16 11:08:49;;;;;;;5.22;3.28;;;7.90;99.90;;;;;;5029104;28;20033;-73
2023/01/16 11:19:46;;;;;;;7.00;3.30;;;8.00;99.90;;;;;;5021609;28;20439;-72
2023/01/16 11:22:27;;;;;;;5.15;4.18;;;8.00;99.90;;;;;;5014558;28;20034;-72
2023/01/16 11:25:00;;;;;;;11.65;5.20;;;8.10;99.90;;;;;;5013279;28;20520;-73
2023/01/16 11:27:31;;;;;;;7.32;5.30;;;8.10;99.90;;;;;;5012499;28;20493;-73
2023/01/16 11:29:57;;;;;;;11.20;5.18;;;8.10;99.90;;;;;;5015221;28;20021;-73
2023/01/16 11:32:27;;;;;;;7.35;3.95;;;8.20;99.90;;;;;;5013080;28;20041;-72
2023/01/16 11:34:57;;;;;;;7.90;3.53;;;8.20;99.90;;;;;;5015261;28;20450;-72
2023/01/16 11:37:28;;;;;;;6.68;3.63;;;8.30;99.90;;;;;;5014694;28;20022;-72
2023/01/16 11:39:56;;;;;;;11.45;4.32;;;8.30;99.90;;;;;;5012840;28;20109;-73
2023/01/16 11:48:23;;;;;;;7.20;3.70;;;8.40;99.90;;;;;;5016128;28;20104;-72
2023/01/16 11:50:51;;;;;;;9.30;3.90;;;8.50;99.90;;;;;;5011778;28;20085;-73
2023/01/16 11:53:17;;;;;;;9.85;3.92;;;8.50;99.90;;;;;;5024448;28;20072;-72
2023/01/16 11:56:06;;;;;;;11.38;4.07;;;8.50;99.90;;;;;;5013882;28;20045;-72
2023/01/16 11:59:06;;;;;;;6.70;3.40;;;8.50;99.90;;;;;;5015810;28;20045;-73
2023/01/16 12:04:29;;;;;;;7.80;3.25;;;8.50;99.90;;;;;;5014455;28;20041;-73
2023/01/16 12:07:04;;;;;;;50.90;25.40;;;8.60;99.90;;;;;;5013486;28;20034;-73
2023/01/16 12:09:39;;;;;;;7.15;3.53;;;8.50;99.90;;;;;;5014669;28;20056;-72
2023/01/16 12:15:06;;;;;;;10.77;7.88;;;8.60;99.90;;;;;;5013729;28;20033;-72
2023/01/16 12:18:01;;;;;;;7.43;3.15;;;8.60;99.90;;;;;;5014907;28;20029;-73
2023/01/16 12:20:44;;;;;;;3.15;2.85;;;8.60;99.90;;;;;;5012700;28;20073;-73
2023/01/16 12:23:21;;;;;;;7.03;3.55;;;8.50;99.90;;;;;;5012349;28;20022;-72
2023/01/16 12:26:00;;;;;;;5.03;2.70;;;8.60;99.90;;;;;;5028578;28;20487;-73
2023/01/16 12:28:53;;;;;;;9.27;3.70;;;8.60;99.90;;;;;;5018234;28;20071;-73
2023/01/16 12:31:37;;;;;;;5.70;3.97;;;8.50;99.90;;;;;;5013150;28;20027;-73
2023/01/16 12:34:32;;;;;;;6.90;3.20;;;8.60;99.90;;;;;;5016395;28;20022;-73
2023/01/16 12:37:01;;;;;;;6.88;3.80;;;8.50;99.90;;;;;;5015404;28;20121;-73
2023/01/16 12:40:08;;;;;;;5.47;3.45;;;8.60;99.90;;;;;;5018377;28;20104;-73
2023/01/16 12:45:56;;;;;;;5.38;2.75;;;8.50;99.90;;;;;;5016601;28;20061;-73
2023/01/16 12:48:40;;;;;;;8.50;4.47;;;8.30;99.90;;;;;;5030493;28;20021;-73
2023/01/16 12:51:21;;;;;;;4.75;3.10;;;8.20;99.90;;;;;;5014017;28;20041;-73
2023/01/16 12:53:49;;;;;;;;;;;8.10;99.90;;;;;;5017217;28;20117;-73
2023/01/16 12:56:32;;;;;;;6.18;2.80;;;8.10;99.90;;;;;;5015509;28;20355;-73
2023/01/16 12:59:03;;;;;;;8.20;3.55;;;8.10;99.90;;;;;;5017737;28;20115;-73
2023/01/16 13:01:35;;;;;;;5.78;3.83;;;8.10;99.90;;;;;;5011123;28;20077;-73
2023/01/16 13:04:11;;;;;;;6.30;3.13;;;8.10;99.90;;;;;;5009293;28;20022;-73
2023/01/16 13:07:15;;;;;;;4.82;3.10;;;8.20;99.90;;;;;;5007587;28;20022;-72
2023/01/16 13:09:46;;;;;;;5.15;3.10;;;8.20;99.90;;;;;;5013387;28;20026;-73
2023/01/16 13:15:21;;;;;;;8.40;2.95;;;8.40;99.90;;;;;;5007377;28;20040;-72
2023/01/16 13:17:56;;;;;;;4.95;3.38;;;8.40;99.90;;;;;;5004635;28;20029;-73
2023/01/16 13:20:23;;;;;;;4.47;3.17;;;8.50;99.90;;;;;;5005605;28;20033;-72
2023/01/16 13:23:05;;;;;;;3.60;3.05;;;8.50;99.90;;;;;;5015158;28;20045;-75
2023/01/16 13:25:42;;;;;;;8.07;3.40;;;8.50;99.90;;;;;;5015714;28;20117;-77
2023/01/16 13:28:42;;;;;;;5.45;3.30;;;8.50;99.90;;;;;;5030221;28;20104;-73
2023/01/16 13:31:34;;;;;;;6.72;4.20;;;8.60;99.90;;;;;;5016201;28;20528;-73
2023/01/16 13:34:41;;;;;;;7.30;3.25;;;8.60;99.90;;;;;;5016277;28;20080;-77
2023/01/16 13:37:31;;;;;;;4.72;3.20;;;8.60;99.90;;;;;;5016016;28;20124;-74
2023/01/16 13:40:06;;;;;;;4.43;3.30;;;8.60;99.90;;;;;;5015968;28;20026;-74
2023/01/16 13:42:34;;;;;;;6.07;3.78;;;8.60;99.90;;;;;;5031197;28;20058;-76
2023/01/16 13:47:52;;;;;;;9.75;3.75;;;8.50;99.90;;;;;;5012420;28;20476;-73
2023/01/16 13:50:37;;;;;;;6.80;3.58;;;8.50;99.90;;;;;;5016069;28;20505;-73
2023/01/16 13:53:08;;;;;;;9.38;3.13;;;8.40;99.90;;;;;;5017738;28;20056;-74
2023/01/16 13:55:40;;;;;;;7.22;3.28;;;8.40;99.90;;;;;;5015082;28;20022;-74
2023/01/16 13:58:12;;;;;;;11.40;4.40;;;8.40;99.90;;;;;;5017232;28;20025;-73
2023/01/16 14:00:39;;;;;;;4.45;3.00;;;8.40;99.90;;;;;;5013594;28;20143;-74
2023/01/16 14:03:31;;;;;;;6.18;3.17;;;8.40;99.90;;;;;;5016050;28;20026;-73
2023/01/16 14:06:09;;;;;;;8.40;3.60;;;8.30;99.90;;;;;;5011604;28;20506;-74
2023/01/16 14:09:04;;;;;;;4.07;3.67;;;8.10;99.90;;;;;;5009587;28;20494;-74
2023/01/16 14:11:38;;;;;;;11.40;3.72;;;7.90;99.90;;;;;;5009099;28;20062;-74
2023/01/16 14:17:21;;;;;;;12.13;4.97;;;7.40;99.90;;;;;;5011414;28;20509;-74
2023/01/16 14:19:51;;;;;;;35.10;6.15;;;7.20;99.90;;;;;;5015248;28;20022;-74
2023/01/16 14:25:17;;;;;;;11.52;4.60;;;7.00;99.90;;;;;;5014336;28;20113;-74
2023/01/16 14:27:47;;;;;;;23.90;9.45;;;7.00;99.90;;;;;;5013538;28;20065;-74
2023/01/16 14:30:20;;;;;;;;;;;7.00;99.90;;;;;;5016826;28;20033;-74